Time;durP1;ratioP1;P1;durP2;ratioP2;P2;SDS_P1;SDS_P2;PMS_P1;PMS_P2;Temp;Humidity;BMP_temperature;BMP_pressure;BME280_temperature;BME280_humidity;BME280_pressure;Samples;Min_cycle;Max_cycle;Signal;HPM_P1;HPM_P2
2023/09/27 00:00:31;;;;;;;35.90;24.20;;;;;;;16.95;100.00;99935.78;107885;1308;22230;-55
2023/09/27 00:02:57;;;;;;;37.20;24.30;;;;;;;16.93;100.00;99934.93;107855;1289;23157;-54
2023/09/27 00:05:23;;;;;;;39.60;23.40;;;;;;;16.87;100.00;99932.63;107866;1286;23098;-52
2023/09/27 00:07:51;;;;;;;38.10;23.10;;;;;;;16.83;100.00;99930.08;107881;1308;22206;-51
2023/09/27 00:10:16;;;;;;;;;;;;;;;16.81;100.00;99927.04;107898;1308;22493;-55
2023/09/27 00:12:42;;;;;;;38.50;23.50;;;;;;;16.79;100.00;99933.00;107887;1289;22305;-54
2023/09/27 00:15:08;;;;;;;40.10;25.00;;;;;;;16.77;100.00;99931.36;107844;1308;22455;-53
2023/09/27 00:17:34;;;;;;;40.20;24.80;;;;;;;16.75;100.00;99929.06;107887;1285;22394;-55
2023/09/27 00:19:59;;;;;;;39.80;24.00;;;;;;;16.74;100.00;99931.05;107888;1308;22245;-56
2023/09/27 00:22:24;;;;;;;38.40;25.10;;;;;;;16.74;100.00;99932.48;107848;1298;22219;-54
2023/09/27 00:24:50;;;;;;;43.70;24.20;;;;;;;16.71;100.00;99927.89;107852;1293;23006;-54
2023/09/27 00:27:16;;;;;;;39.10;23.60;;;;;;;16.71;100.00;99927.05;107859;1308;22242;-54
2023/09/27 00:29:41;;;;;;;40.00;24.50;;;;;;;16.69;100.00;99926.31;107875;1288;22981;-53
2023/09/27 00:32:07;;;;;;;41.90;25.10;;;;;;;16.67;100.00;99925.88;107873;1289;22225;-56
2023/09/27 00:34:32;;;;;;;38.40;24.10;;;;;;;16.65;100.00;99926.36;107876;1308;22592;-56
2023/09/27 00:36:57;;;;;;;47.50;26.10;;;;;;;16.63;100.00;99923.34;107867;1308;22460;-50
2023/09/27 00:39:23;;;;;;;39.30;23.80;;;;;;;16.62;100.00;99921.98;107886;1305;22270;-51
2023/09/27 00:41:48;;;;;;;40.40;23.70;;;;;;;16.61;100.00;99918.92;107899;1308;22223;-50
2023/09/27 00:44:14;;;;;;;42.60;24.20;;;;;;;16.59;100.00;99916.57;107857;1289;22246;-54
2023/09/27 00:46:40;;;;;;;36.10;23.00;;;;;;;16.58;100.00;99917.16;107864;1308;22455;-54
2023/09/27 00:49:07;;;;;;;41.10;23.70;;;;;;;16.56;100.00;99916.20;107884;1308;22387;-51
2023/09/27 00:51:32;;;;;;;39.70;23.70;;;;;;;16.54;100.00;99916.72;107893;1288;22200;-52
2023/09/27 00:53:58;;;;;;;42.50;24.90;;;;;;;16.51;100.00;99917.77;107873;1308;22374;-53
2023/09/27 00:56:24;;;;;;;35.40;23.70;;;;;;;16.50;100.00;99918.17;107782;1308;22206;-55
2023/09/27 00:58:51;;;;;;;42.30;24.60;;;;;;;16.49;100.00;99915.44;107887;1288;22258;-52
2023/09/27 01:01:17;;;;;;;36.50;23.60;;;;;;;16.48;100.00;99915.20;107896;1296;22446;-54
2023/09/27 01:03:43;;;;;;;44.80;24.10;;;;;;;16.47;100.00;99913.30;107881;1289;23158;-56
2023/09/27 01:06:09;;;;;;;36.40;23.50;;;;;;;16.46;100.00;99913.94;107875;1308;22250;-53
2023/09/27 01:08:34;;;;;;;37.70;24.00;;;;;;;16.44;100.00;99916.14;107871;1288;22274;-50
2023/09/27 01:11:01;;;;;;;37.60;23.30;;;;;;;16.43;100.00;99910.37;107861;1308;22417;-51
2023/09/27 01:13:27;;;;;;;42.60;24.60;;;;;;;16.41;100.00;99909.27;107893;1308;22406;-54
2023/09/27 01:15:52;;;;;;;34.20;23.70;;;;;;;16.40;100.00;99907.05;107897;1296;23344;-55
2023/09/27 01:18:17;;;;;;;42.70;24.30;;;;;;;16.40;100.00;99908.14;107897;1289;22411;-53
2023/09/27 01:20:42;;;;;;;38.40;23.20;;;;;;;16.39;100.00;99904.66;107891;1289;22398;-52
2023/09/27 01:23:08;;;;;;;40.10;24.70;;;;;;;16.38;100.00;99902.25;107891;1286;24347;-52
2023/09/27 01:25:35;;;;;;;38.30;23.90;;;;;;;16.37;100.00;99902.14;107879;1308;22163;-50
2023/09/27 01:28:03;;;;;;;34.50;23.60;;;;;;;16.35;100.00;99900.14;107889;1292;22260;-56
2023/09/27 01:30:32;;;;;;;35.70;24.40;;;;;;;16.34;100.00;99894.90;107884;1302;23112;-56
2023/09/27 01:33:05;;;;;;;40.50;23.90;;;;;;;16.34;100.00;99894.06;107895;1308;22410;-56
2023/09/27 01:35:34;;;;;;;37.10;23.50;;;;;;;16.34;100.00;99897.62;107792;1308;22399;-53
2023/09/27 01:38:00;;;;;;;38.80;25.20;;;;;;;16.32;100.00;99894.70;107888;1288;22255;-54
2023/09/27 01:40:30;;;;;;;39.60;24.10;;;;;;;16.30;100.00;99893.56;107877;1288;22331;-56
2023/09/27 01:43:03;;;;;;;42.20;25.50;;;;;;;16.30;100.00;99892.40;107887;1289;22250;-52
2023/09/27 01:45:29;;;;;;;35.70;23.60;;;;;;;16.29;100.00;99894.77;107871;1308;22285;-55
2023/09/27 01:47:56;;;;;;;37.80;24.30;;;;;;;16.27;100.00;99900.86;107895;1308;23029;-53
2023/09/27 01:50:23;;;;;;;44.40;24.60;;;;;;;16.26;100.00;99901.67;107916;1286;22434;-54
2023/09/27 01:52:49;;;;;;;;;;;;;;;16.25;100.00;99902.27;107908;1308;22509;-55
2023/09/27 01:55:14;;;;;;;39.00;24.30;;;;;;;16.22;100.00;99902.80;107872;1288;22392;-53
2023/09/27 01:57:39;;;;;;;41.20;24.60;;;;;;;16.22;100.00;99905.48;107836;1308;22203;-56
2023/09/27 02:00:10;;;;;;;42.40;24.60;;;;;;;16.22;100.00;99904.45;107890;1308;22415;-54
2023/09/27 02:02:35;;;;;;;42.90;24.00;;;;;;;16.21;100.00;99903.80;107880;1288;22212;-54
2023/09/27 02:05:00;;;;;;;34.90;23.70;;;;;;;16.20;100.00;99901.95;107868;1308;22404;-55
2023/09/27 02:07:26;;;;;;;37.90;24.10;;;;;;;16.19;100.00;99899.72;107887;1308;22195;-53
2023/09/27 02:09:51;;;;;;;40.20;25.30;;;;;;;16.18;100.00;99897.79;107871;1289;23435;-53
2023/09/27 02:12:16;;;;;;;38.10;24.00;;;;;;;16.16;100.00;99896.86;107876;1288;22395;-54
2023/09/27 02:14:42;;;;;;;42.90;25.20;;;;;;;16.15;100.00;99895.70;107904;1308;22278;-50
2023/09/27 02:17:07;;;;;;;36.90;24.20;;;;;;;16.15;100.00;99898.08;107874;1308;22389;-56
2023/09/27 02:19:33;;;;;;;39.60;25.20;;;;;;;16.13;100.00;99898.66;107886;1308;22949;-52
2023/09/27 02:21:58;;;;;;;40.90;24.30;;;;;;;16.10;100.00;99896.52;107879;1308;22404;-55
2023/09/27 02:24:24;;;;;;;42.10;25.60;;;;;;;16.09;100.00;99899.48;107892;1289;22538;-55
2023/09/27 02:26:49;;;;;;;41.80;25.00;;;;;;;16.08;100.00;99897.77;107865;1308;22242;-55
2023/09/27 02:29:15;;;;;;;42.50;25.70;;;;;;;16.06;100.00;99897.89;107848;1305;22221;-50
2023/09/27 02:31:41;;;;;;;48.10;26.50;;;;;;;16.05;100.00;99896.72;107880;1308;23142;-55
2023/09/27 02:34:07;;;;;;;36.20;23.50;;;;;;;16.04;100.00;99895.04;107910;1289;22938;-56
2023/09/27 02:36:33;;;;;;;42.60;25.00;;;;;;;16.02;100.00;99896.40;107898;1299;22203;-55
2023/09/27 02:38:58;;;;;;;42.30;24.90;;;;;;;16.01;100.00;99893.85;107866;1308;22411;-53
2023/09/27 02:43:40;;;;;;;39.10;24.30;;;;;;;16.00;100.00;99894.96;106931;1302;544957;-49
2023/09/27 02:46:06;;;;;;;35.70;24.30;;;;;;;15.96;100.00;99895.60;107367;1295;22412;-50
2023/09/27 02:48:32;;;;;;;40.60;24.10;;;;;;;15.94;100.00;99892.88;107374;1295;22401;-52
2023/09/27 02:50:57;;;;;;;41.20;24.30;;;;;;;15.95;100.00;99898.16;107367;1292;22434;-52
2023/09/27 02:53:22;;;;;;;42.30;25.50;;;;;;;15.93;100.00;99899.11;107355;1312;22417;-53
2023/09/27 02:55:48;;;;;;;38.20;24.60;;;;;;;15.92;100.00;99898.13;107372;1292;23065;-53
2023/09/27 02:58:13;;;;;;;42.30;25.20;;;;;;;15.92;100.00;99894.59;107213;1310;160085;-52
2023/09/27 03:00:40;;;;;;;42.40;24.90;;;;;;;15.92;100.00;99896.58;107679;1289;22221;-53
2023/09/27 03:03:07;;;;;;;;;;;;;;;15.91;100.00;99895.77;107686;1306;22519;-50
2023/09/27 03:05:38;;;;;;;41.40;24.40;;;;;;;15.89;100.00;99895.20;107640;1292;22234;-53
2023/09/27 03:08:04;;;;;;;37.80;24.90;;;;;;;15.87;100.00;99889.98;107686;1292;22227;-53
2023/09/27 03:10:29;;;;;;;41.20;24.90;;;;;;;15.87;100.00;99890.69;107660;1305;23097;-50
2023/09/27 03:12:58;;;;;;;39.10;24.70;;;;;;;15.86;100.00;99891.45;107675;1302;22259;-52
2023/09/27 03:15:24;;;;;;;40.70;24.50;;;;;;;15.86;100.00;99893.45;107677;1292;23177;-55
2023/09/27 03:17:49;;;;;;;36.10;23.80;;;;;;;15.86;100.00;99893.64;107691;1292;22740;-49
2023/09/27 03:20:18;;;;;;;36.60;23.80;;;;;;;15.84;100.00;99892.86;107697;1292;22229;-50
2023/09/27 03:22:45;;;;;;;37.80;24.40;;;;;;;15.83;100.00;99889.95;107669;1304;22379;-51
2023/09/27 03:25:11;;;;;;;35.60;24.20;;;;;;;15.83;100.00;99885.73;107648;1295;22244;-52
2023/09/27 03:27:36;;;;;;;41.30;24.80;;;;;;;15.82;100.00;99888.59;107679;1292;22208;-54
2023/09/27 03:30:04;;;;;;;36.00;23.40;;;;;;;15.80;100.00;99885.33;107666;1294;22628;-53
2023/09/27 03:32:31;;;;;;;38.70;23.40;;;;;;;15.79;100.00;99883.98;107459;1293;22353;-51
2023/09/27 03:34:57;;;;;;;43.80;24.00;;;;;;;15.78;100.00;99882.66;107710;1292;22423;-50
2023/09/27 03:37:22;;;;;;;39.20;23.00;;;;;;;15.76;100.00;99885.08;107685;1291;22241;-53
2023/09/27 03:39:49;;;;;;;39.50;23.90;;;;;;;15.74;100.00;99885.17;107671;1292;22410;-53
2023/09/27 03:42:14;;;;;;;38.20;24.10;;;;;;;15.71;100.00;99887.81;107670;1289;22242;-54
2023/09/27 03:44:39;;;;;;;33.80;23.50;;;;;;;15.70;100.00;99889.34;107658;1310;22438;-54
2023/09/27 03:47:05;;;;;;;37.30;23.60;;;;;;;15.69;100.00;99895.23;107792;1300;22470;-53
2023/09/27 03:49:30;;;;;;;40.50;24.50;;;;;;;15.66;100.00;99896.30;107807;1292;22413;-56
2023/09/27 03:51:55;;;;;;;33.70;23.40;;;;;;;15.64;100.00;99898.60;107828;1301;22414;-55
2023/09/27 03:54:22;;;;;;;36.20;23.30;;;;;;;15.62;100.00;99900.09;107853;1292;22424;-55
2023/09/27 03:56:47;;;;;;;35.20;23.00;;;;;;;15.61;100.00;99900.01;107788;1308;22977;-50
2023/09/27 03:59:13;;;;;;;35.70;23.20;;;;;;;15.60;100.00;99896.73;107802;1292;22535;-53
2023/09/27 04:01:39;;;;;;;41.50;23.20;;;;;;;15.59;100.00;99896.80;107815;1308;22449;-53
2023/09/27 04:04:05;;;;;;;40.60;23.20;;;;;;;15.58;100.00;99894.39;107805;1292;22230;-54
2023/09/27 04:06:30;;;;;;;34.90;23.00;;;;;;;15.57;100.00;99892.66;107819;1289;22406;-52
2023/09/27 04:08:56;;;;;;;39.30;24.00;;;;;;;15.57;100.00;99891.27;107818;1308;22985;-54
2023/09/27 04:11:21;;;;;;;40.00;22.90;;;;;;;15.57;100.00;99895.66;107864;1289;22225;-56
2023/09/27 04:13:48;;;;;;;37.10;24.70;;;;;;;15.57;100.00;99894.81;107791;1304;22392;-50
2023/09/27 04:16:13;;;;;;;36.40;23.20;;;;;;;15.57;100.00;99895.17;107846;1289;22249;-53
2023/09/27 04:18:38;;;;;;;37.90;22.40;;;;;;;15.57;100.00;99896.76;107823;1288;22798;-53
2023/09/27 04:21:07;;;;;;;40.90;23.50;;;;;;;15.57;100.00;99895.01;107822;1308;23012;-55
2023/09/27 04:23:33;;;;;;;37.40;23.00;;;;;;;15.57;100.00;99898.72;107816;1292;22239;-55
2023/09/27 04:26:00;;;;;;;38.60;23.10;;;;;;;15.57;100.00;99898.16;107834;1289;22418;-54
2023/09/27 04:28:25;;;;;;;32.70;22.60;;;;;;;15.56;100.00;99902.48;107841;1288;22309;-55
2023/09/27 04:30:51;;;;;;;36.90;23.40;;;;;;;15.55;100.00;99904.11;107827;1308;22196;-52
2023/09/27 04:33:17;;;;;;;40.00;24.30;;;;;;;15.54;100.00;99904.16;107831;1289;22242;-53
2023/09/27 04:35:42;;;;;;;44.10;23.50;;;;;;;15.54;100.00;99901.91;107813;1292;22432;-49
2023/09/27 04:38:09;;;;;;;36.40;21.50;;;;;;;15.53;100.00;99899.15;107819;1286;22841;-53
2023/09/27 04:40:35;;;;;;;38.90;22.30;;;;;;;15.51;100.00;99906.13;107844;1308;22427;-55
2023/09/27 04:43:00;;;;;;;41.40;23.90;;;;;;;15.51;100.00;99903.88;107850;1288;22464;-52
2023/09/27 04:45:25;;;;;;;30.60;22.00;;;;;;;15.51;100.00;99905.81;107833;1308;23039;-54
2023/09/27 04:47:52;;;;;;;33.90;22.20;;;;;;;15.51;100.00;99904.55;107842;1308;23114;-53
2023/09/27 04:50:17;;;;;;;33.80;22.20;;;;;;;15.50;100.00;99909.21;107862;1288;22754;-55
2023/09/27 04:52:42;;;;;;;33.10;21.30;;;;;;;15.51;100.00;99911.98;107848;1289;22244;-53
2023/09/27 04:55:12;;;;;;;31.10;21.50;;;;;;;15.52;100.00;99916.71;107833;1308;22941;-51
2023/09/27 04:57:37;;;;;;;34.90;22.10;;;;;;;15.50;100.00;99916.30;107840;1289;22509;-55
2023/09/27 05:00:04;;;;;;;37.90;22.70;;;;;;;15.50;100.00;99917.36;107833;1292;22142;-53
2023/09/27 05:02:29;;;;;;;34.00;22.70;;;;;;;15.50;100.00;99918.75;107832;1308;22428;-49
2023/09/27 05:04:54;;;;;;;39.40;22.10;;;;;;;15.50;100.00;99918.77;107827;1289;22222;-57
2023/09/27 05:07:20;;;;;;;36.20;23.30;;;;;;;15.49;100.00;99917.05;107840;1307;22227;-54
2023/09/27 05:09:46;;;;;;;59.10;23.60;;;;;;;15.49;100.00;99916.91;107858;1289;22233;-55
2023/09/27 05:12:13;;;;;;;43.40;21.90;;;;;;;15.49;100.00;99922.39;108016;1295;23133;-52
2023/09/27 05:14:38;;;;;;;42.90;23.50;;;;;;;15.49;100.00;99924.13;107995;1307;22279;-55
2023/09/27 05:17:04;;;;;;;39.50;23.30;;;;;;;15.49;100.00;99924.11;108013;1292;23381;-49
2023/09/27 05:19:29;;;;;;;35.60;22.10;;;;;;;15.49;100.00;99919.19;107991;1289;22726;-56
2023/09/27 05:21:55;;;;;;;44.70;24.80;;;;;;;15.49;100.00;99918.13;108000;1307;23189;-57
2023/09/27 05:24:20;;;;;;;36.10;22.70;;;;;;;15.48;100.00;99919.64;107976;1305;23119;-52
2023/09/27 05:26:45;;;;;;;42.70;24.60;;;;;;;15.48;100.00;99920.13;107993;1290;22346;-54
2023/09/27 05:29:13;;;;;;;38.70;22.90;;;;;;;15.49;100.00;99922.39;107986;1289;23004;-54
2023/09/27 05:31:43;;;;;;;37.30;22.40;;;;;;;15.49;100.00;99927.16;107996;1292;22271;-53
2023/09/27 05:34:08;;;;;;;37.40;22.10;;;;;;;15.48;100.00;99927.90;108011;1287;22908;-52
2023/09/27 05:36:34;;;;;;;38.00;24.00;;;;;;;15.49;100.00;99927.30;107999;1287;22223;-56
2023/09/27 05:39:02;;;;;;;39.80;23.10;;;;;;;15.51;100.00;99928.04;108010;1289;22473;-55
2023/09/27 05:41:27;;;;;;;36.30;22.80;;;;;;;15.52;100.00;99926.55;108003;1289;22395;-50
2023/09/27 05:43:52;;;;;;;40.80;22.40;;;;;;;15.55;100.00;99931.52;108008;1289;22274;-54
2023/09/27 05:46:18;;;;;;;42.00;23.20;;;;;;;15.57;100.00;99933.19;108003;1307;22898;-50
2023/09/27 05:48:43;;;;;;;35.10;22.80;;;;;;;15.59;100.00;99929.67;108010;1307;22418;-53
2023/09/27 05:51:09;;;;;;;39.80;21.70;;;;;;;15.61;100.00;99933.05;107993;1286;22411;-50
2023/09/27 05:53:34;;;;;;;43.50;22.30;;;;;;;15.63;100.00;99932.42;107993;1303;22228;-53
2023/09/27 05:56:03;;;;;;;39.80;22.80;;;;;;;15.65;100.00;99933.73;107967;1307;22253;-56
2023/09/27 05:58:29;;;;;;;37.10;23.30;;;;;;;15.66;100.00;99932.94;107987;1307;22250;-55
2023/09/27 06:00:55;;;;;;;44.90;24.10;;;;;;;15.67;100.00;99934.09;108007;1307;22226;-54
2023/09/27 06:03:20;;;;;;;36.30;22.40;;;;;;;15.70;100.00;99934.92;108000;1307;22219;-53
2023/09/27 06:05:46;;;;;;;45.80;24.00;;;;;;;15.74;100.00;99934.52;107999;1307;22216;-50
2023/09/27 06:08:11;;;;;;;41.10;23.20;;;;;;;15.77;100.00;99941.95;107996;1306;22915;-51
2023/09/27 06:10:36;;;;;;;39.70;23.00;;;;;;;15.79;100.00;99943.95;108021;1288;22965;-53
2023/09/27 06:13:03;;;;;;;44.10;23.10;;;;;;;15.82;100.00;99946.23;107981;1307;23036;-55
2023/09/27 06:15:32;;;;;;;38.10;22.80;;;;;;;15.85;100.00;99946.02;107996;1307;23010;-54
2023/09/27 06:17:58;;;;;;;38.70;22.50;;;;;;;15.88;100.00;99949.16;107974;1307;23056;-54
2023/09/27 06:20:24;;;;;;;34.40;22.50;;;;;;;15.92;100.00;99948.57;107977;1288;22219;-52
2023/09/27 06:22:52;;;;;;;33.30;23.50;;;;;;;15.96;100.00;99951.31;108030;1289;22369;-51
2023/09/27 06:25:18;;;;;;;38.70;23.50;;;;;;;15.98;100.00;99953.45;107987;1307;22299;-48
2023/09/27 06:27:43;;;;;;;37.90;24.00;;;;;;;16.01;100.00;99951.30;108005;1289;23024;-57
2023/09/27 06:30:09;;;;;;;41.10;23.50;;;;;;;16.04;100.00;99949.48;108017;1286;22238;-50
2023/09/27 06:32:35;;;;;;;36.60;23.90;;;;;;;16.08;100.00;99950.67;108004;1289;23044;-54
2023/09/27 06:35:01;;;;;;;44.90;23.50;;;;;;;16.10;100.00;99956.17;108007;1286;22237;-52
2023/09/27 06:37:27;;;;;;;40.20;24.30;;;;;;;16.13;100.00;99958.80;107750;1298;22469;-52
2023/09/27 06:39:53;;;;;;;35.10;23.30;;;;;;;16.15;100.00;99958.85;107994;1293;22453;-53
2023/09/27 06:42:19;;;;;;;37.70;22.20;;;;;;;16.17;100.00;99959.64;107985;1285;22714;-53
2023/09/27 06:44:44;;;;;;;36.20;23.40;;;;;;;16.20;100.00;99965.96;107990;1291;22420;-50
2023/09/27 06:47:09;;;;;;;42.30;23.40;;;;;;;16.24;100.00;99970.61;107984;1286;22911;-49
2023/09/27 06:49:35;;;;;;;38.70;22.60;;;;;;;16.27;100.00;99969.21;107967;1289;22232;-55
2023/09/27 06:52:00;;;;;;;40.30;23.50;;;;;;;16.30;100.00;99971.13;108007;1288;22226;-55
2023/09/27 06:54:25;;;;;;;42.90;22.10;;;;;;;16.34;100.00;99973.16;107987;1302;22560;-53
2023/09/27 06:56:51;;;;;;;38.20;22.10;;;;;;;16.37;100.00;99972.74;107995;1296;22388;-55
2023/09/27 06:59:16;;;;;;;37.50;22.90;;;;;;;16.42;100.00;99975.92;108003;1307;22225;-53
2023/09/27 07:01:41;;;;;;;35.70;22.40;;;;;;;16.45;100.00;99981.95;108020;1302;22241;-50
2023/09/27 07:04:08;;;;;;;39.40;22.20;;;;;;;16.47;100.00;99978.23;107995;1307;23096;-53
2023/09/27 07:06:33;;;;;;;33.90;22.40;;;;;;;16.51;100.00;99977.30;107990;1307;22210;-54
2023/09/27 07:08:59;;;;;;;41.20;22.40;;;;;;;16.56;100.00;99977.45;107976;1307;22247;-53
2023/09/27 07:11:24;;;;;;;39.30;21.60;;;;;;;16.60;100.00;99982.66;107980;1289;22243;-54
2023/09/27 07:13:50;;;;;;;43.90;21.90;;;;;;;16.65;100.00;99985.83;107981;1307;22457;-56
2023/09/27 07:16:26;;;;;;;37.80;23.70;;;;;;;16.71;100.00;99990.80;108007;1299;22282;-53
2023/09/27 07:19:03;;;;;;;37.00;21.30;;;;;;;16.76;100.00;99994.11;107988;1289;22975;-56
2023/09/27 07:21:30;;;;;;;44.70;22.70;;;;;;;16.82;100.00;99990.21;107990;1290;22420;-56
2023/09/27 07:23:55;;;;;;;42.60;22.30;;;;;;;16.88;100.00;99989.45;108013;1307;22272;-54
2023/09/27 07:26:20;;;;;;;32.10;20.70;;;;;;;16.93;100.00;99990.35;107975;1307;22253;-49
2023/09/27 07:28:46;;;;;;;37.90;22.00;;;;;;;16.97;100.00;99988.65;107991;1292;22305;-55
2023/09/27 07:31:14;;;;;;;37.60;22.10;;;;;;;17.03;100.00;99991.77;108014;1289;22291;-54
2023/09/27 07:33:39;;;;;;;36.80;21.90;;;;;;;17.09;100.00;99989.05;108001;1285;22255;-51
2023/09/27 07:36:08;;;;;;;38.20;22.50;;;;;;;17.16;100.00;99990.50;107993;1290;22999;-55
2023/09/27 07:38:33;;;;;;;33.50;20.60;;;;;;;17.21;100.00;99995.95;108011;1289;22383;-51
2023/09/27 07:40:59;;;;;;;37.40;21.60;;;;;;;17.28;100.00;99997.76;107998;1292;22908;-53
2023/09/27 07:43:24;;;;;;;38.20;21.70;;;;;;;17.34;100.00;99997.52;107710;1299;22272;-54
2023/09/27 07:45:49;;;;;;;36.70;22.20;;;;;;;17.40;100.00;99998.63;107977;1307;23081;-52
2023/09/27 07:48:15;;;;;;;35.30;21.60;;;;;;;17.47;100.00;100000.26;108003;1285;22487;-52
2023/09/27 07:50:40;;;;;;;36.50;21.90;;;;;;;17.55;100.00;100002.01;107981;1305;22372;-52
2023/09/27 07:53:08;;;;;;;35.60;23.50;;;;;;;17.63;100.00;99994.33;107993;1307;22487;-55
2023/09/27 07:55:43;;;;;;;37.10;22.50;;;;;;;17.71;100.00;99997.65;108000;1307;22162;-50
2023/09/27 07:58:08;;;;;;;32.30;20.90;;;;;;;17.78;100.00;99996.22;108003;1307;22924;-55
2023/09/27 08:00:35;;;;;;;34.70;22.40;;;;;;;17.86;100.00;99998.17;107997;1305;22222;-46
2023/09/27 08:03:00;;;;;;;36.80;21.80;;;;;;;17.93;100.00;100002.27;108039;1289;22209;-47
2023/09/27 08:05:26;;;;;;;44.20;23.20;;;;;;;18.00;100.00;100005.63;108048;1289;22414;-52
2023/09/27 08:07:51;;;;;;;32.90;21.40;;;;;;;18.07;100.00;100002.11;108069;1288;22207;-48
2023/09/27 08:10:18;;;;;;;33.60;20.60;;;;;;;18.14;100.00;100004.42;107972;1289;23095;-50
2023/09/27 08:12:44;;;;;;;34.10;22.20;;;;;;;18.20;100.00;100006.98;108005;1286;22414;-49
2023/09/27 08:15:12;;;;;;;40.00;21.80;;;;;;;18.27;100.00;100006.80;108042;1285;22340;-46
2023/09/27 08:17:38;;;;;;;32.00;21.80;;;;;;;18.34;100.00;100004.45;108069;1295;22966;-50
2023/09/27 08:20:05;;;;;;;30.90;19.30;;;;;;;18.41;100.00;100008.42;108005;1306;22220;-50
2023/09/27 08:22:32;;;;;;;;;;;;;;;18.49;100.00;100006.55;108001;1288;22674;-46
2023/09/27 08:24:57;;;;;;;35.50;20.80;;;;;;;18.56;100.00;100002.31;107800;1288;23091;-49
2023/09/27 08:27:25;;;;;;;37.70;22.40;;;;;;;18.63;100.00;100000.54;108075;1306;22235;-53
2023/09/27 08:29:50;;;;;;;35.90;23.40;;;;;;;18.70;100.00;99999.45;108067;1297;22420;-45
2023/09/27 08:32:15;;;;;;;33.60;21.40;;;;;;;18.80;100.00;100007.21;108036;1289;22458;-48
2023/09/27 08:34:40;;;;;;;41.20;21.60;;;;;;;18.89;100.00;100006.84;108036;1283;22326;-45
2023/09/27 08:37:06;;;;;;;31.50;21.10;;;;;;;18.99;100.00;100005.00;108073;1306;22435;-48
2023/09/27 08:39:31;;;;;;;33.80;21.10;;;;;;;19.13;100.00;100004.65;108042;1305;22661;-51
2023/09/27 08:41:58;;;;;;;41.70;21.70;;;;;;;19.26;100.00;100002.85;107998;1282;22223;-47
2023/09/27 08:44:24;;;;;;;;;;;;;;;19.39;100.00;100000.73;108030;1287;22530;-51
2023/09/27 08:46:50;;;;;;;43.00;22.10;;;;;;;19.49;100.00;100000.63;107997;1307;22346;-51
2023/09/27 08:49:17;;;;;;;35.40;20.40;;;;;;;19.61;100.00;99997.40;107994;1289;22342;-49
2023/09/27 08:51:44;;;;;;;32.60;20.20;;;;;;;19.70;100.00;99998.02;107994;1307;23023;-48
2023/09/27 08:54:11;;;;;;;37.90;21.20;;;;;;;19.81;100.00;99996.67;107975;1307;22181;-50
2023/09/27 08:56:36;;;;;;;35.70;21.40;;;;;;;19.92;100.00;99999.83;108036;1288;22391;-47
2023/09/27 08:59:03;;;;;;;35.00;21.40;;;;;;;20.05;100.00;100002.52;108073;1289;22368;-49
2023/09/27 09:01:32;;;;;;;33.20;20.80;;;;;;;20.25;100.00;99998.54;108099;1283;22368;-45
2023/09/27 09:03:59;;;;;;;34.70;20.70;;;;;;;20.60;100.00;99999.30;108097;1290;22350;-48
2023/09/27 09:06:25;;;;;;;29.00;19.70;;;;;;;20.99;100.00;100000.02;108075;1306;22464;-50
2023/09/27 09:08:51;;;;;;;34.40;19.00;;;;;;;21.25;100.00;99997.89;108085;1306;22204;-48
2023/09/27 09:11:18;;;;;;;39.40;20.40;;;;;;;21.42;100.00;100001.08;108089;1297;22926;-47
2023/09/27 09:13:58;;;;;;;27.30;18.40;;;;;;;21.57;99.50;100006.89;108089;1298;22231;-50
2023/09/27 09:16:24;;;;;;;33.90;17.50;;;;;;;21.79;99.52;100008.87;108091;1288;22904;-46
2023/09/27 09:18:54;;;;;;;30.10;17.80;;;;;;;22.04;99.01;100006.75;108081;1288;22701;-49
2023/09/27 09:21:20;;;;;;;30.00;18.00;;;;;;;22.07;95.55;100007.38;107989;1289;22238;-47
2023/09/27 09:23:49;;;;;;;28.90;17.30;;;;;;;22.05;95.79;100005.55;107979;1307;22407;-47
2023/09/27 09:26:29;;;;;;;25.90;17.80;;;;;;;22.03;96.11;100003.80;108008;1289;22252;-46
2023/09/27 09:28:59;;;;;;;31.30;17.60;;;;;;;22.00;95.86;100005.65;107971;1289;22452;-46
2023/09/27 09:31:26;;;;;;;22.90;15.20;;;;;;;21.97;95.78;100003.80;107965;1307;22961;-46
2023/09/27 09:34:11;;;;;;;32.50;18.40;;;;;;;21.95;95.12;100006.73;108012;1307;22274;-50
2023/09/27 09:36:37;;;;;;;26.40;17.00;;;;;;;21.93;94.84;100005.40;108015;1307;22453;-48
2023/09/27 09:39:16;;;;;;;29.10;15.40;;;;;;;21.92;94.64;100004.10;108019;1285;22195;-50
2023/09/27 09:41:49;;;;;;;28.10;14.70;;;;;;;21.92;94.30;100003.54;108033;1306;22717;-45
2023/09/27 09:44:22;;;;;;;27.00;14.10;;;;;;;21.92;94.04;100004.08;108051;1288;23196;-50
2023/09/27 09:46:48;;;;;;;21.60;14.00;;;;;;;21.92;94.01;100010.33;108026;1286;22420;-45
2023/09/27 09:49:15;;;;;;;23.10;14.30;;;;;;;21.94;93.76;100012.16;108033;1289;22453;-44
2023/09/27 09:51:48;;;;;;;22.00;13.80;;;;;;;21.95;93.51;100010.77;108047;1285;22326;-47
2023/09/27 09:54:37;;;;;;;27.90;14.90;;;;;;;21.96;93.07;100009.04;107975;1282;22425;-44
2023/09/27 09:57:06;;;;;;;25.00;15.30;;;;;;;21.98;92.88;100010.90;107938;1295;22261;-46
2023/09/27 09:59:57;;;;;;;22.70;13.40;;;;;;;22.01;92.66;100009.52;108024;1306;22363;-45
2023/09/27 10:02:27;;;;;;;26.30;14.70;;;;;;;22.03;91.95;100008.59;108012;1289;22256;-45
2023/09/27 10:04:55;;;;;;;21.00;14.60;;;;;;;22.06;91.84;100012.11;108024;1301;22414;-48
2023/09/27 10:07:21;;;;;;;26.10;13.60;;;;;;;22.08;92.02;100009.23;108024;1286;22236;-54
2023/09/27 10:09:47;;;;;;;25.60;12.40;;;;;;;22.11;91.40;100010.05;108011;1298;23066;-53
2023/09/27 10:12:13;;;;;;;28.80;13.20;;;;;;;22.16;91.29;100011.90;107996;1292;23198;-53
2023/09/27 10:14:40;;;;;;;24.70;13.00;;;;;;;22.19;91.21;100011.08;108042;1289;22289;-54
2023/09/27 10:17:19;;;;;;;24.00;12.80;;;;;;;22.22;90.90;100008.13;108030;1306;23174;-50
2023/09/27 10:20:12;;;;;;;28.60;12.80;;;;;;;22.24;90.71;100011.48;108005;1302;23036;-52
2023/09/27 10:22:42;;;;;;;22.10;11.70;;;;;;;22.30;90.31;100009.08;108017;1289;23600;-54
2023/09/27 10:25:22;;;;;;;22.10;12.80;;;;;;;22.33;89.30;100007.16;108013;1289;22230;-52
2023/09/27 10:28:01;;;;;;;24.60;12.40;;;;;;;22.36;89.22;100008.25;108039;1306;22400;-52
2023/09/27 10:30:26;;;;;;;18.30;12.10;;;;;;;22.41;89.24;100007.09;108033;1286;23001;-55
2023/09/27 10:33:15;;;;;;;27.30;12.70;;;;;;;22.47;89.14;100005.67;108030;1306;22253;-53
2023/09/27 10:35:46;;;;;;;17.50;12.60;;;;;;;22.54;89.13;100002.46;108028;1299;22267;-57
2023/09/27 10:38:12;;;;;;;23.50;11.80;;;;;;;22.58;88.68;100000.63;107995;1306;22240;-54
2023/09/27 10:40:45;;;;;;;21.40;12.30;;;;;;;22.62;88.25;99998.36;108018;1292;22912;-55
2023/09/27 10:43:40;;;;;;;24.60;11.60;;;;;;;22.67;87.99;99997.92;108045;1287;23089;-56
2023/09/27 10:46:07;;;;;;;18.20;11.80;;;;;;;22.74;87.35;99995.44;107982;1289;22235;-52
2023/09/27 10:48:33;;;;;;;19.40;11.90;;;;;;;22.79;86.96;99994.01;108060;1289;22977;-55
2023/09/27 10:50:58;;;;;;;17.70;11.90;;;;;;;22.85;86.76;99988.65;108045;1290;22459;-58
2023/09/27 10:53:24;;;;;;;24.80;12.30;;;;;;;22.91;86.41;99987.54;108033;1282;22918;-56
2023/09/27 10:55:50;;;;;;;20.80;12.80;;;;;;;22.96;86.16;99982.08;108065;1288;22253;-54
2023/09/27 10:58:16;;;;;;;26.70;11.70;;;;;;;23.02;86.03;99976.34;108015;1286;22264;-54
2023/09/27 11:01:01;;;;;;;17.70;11.60;;;;;;;23.08;86.09;99974.52;107768;1288;22250;-55
2023/09/27 11:03:29;;;;;;;23.20;11.80;;;;;;;23.15;85.47;99974.12;108066;1285;23060;-56